Time;durP1;ratioP1;P1;durP2;ratioP2;P2;SDS_P1;SDS_P2;PMS_P1;PMS_P2;Temp;Humidity;BMP_temperature;BMP_pressure;BME280_temperature;BME280_humidity;BME280_pressure;Samples;Min_cycle;Max_cycle;Signal;HPM_P1;HPM_P2
2023/06/13 00:01:49;;;;;;;1.67;0.77;;;;;;;;;;5014885;28;20510;-82
2023/06/13 00:04:21;;;;;;;2.23;0.60;;;;;;;;;;5014710;28;20530;-77
2023/06/13 00:06:47;;;;;;;4.87;1.00;;;;;;;;;;5015128;28;20469;-85
2023/06/13 00:09:12;;;;;;;1.00;0.60;;;;;;;;;;5034190;28;20495;-84
2023/06/13 00:11:38;;;;;;;1.13;0.60;;;;;;;;;;5034422;28;20443;-77
2023/06/13 00:14:04;;;;;;;0.90;0.53;;;;;;;;;;5034457;28;20586;-81
2023/06/13 00:16:31;;;;;;;3.23;0.73;;;;;;;;;;5034313;28;20171;-84
2023/06/13 00:18:58;;;;;;;1.10;0.87;;;;;;;;;;5034327;28;20424;-79
2023/06/13 00:21:24;;;;;;;3.57;0.90;;;;;;;;;;5033679;28;20421;-77
2023/06/13 00:23:50;;;;;;;2.13;0.40;;;;;;;;;;5034159;28;20478;-77
2023/06/13 00:26:16;;;;;;;4.77;0.80;;;;;;;;;;5034201;28;20494;-77
2023/06/13 00:28:42;;;;;;;2.17;0.57;;;;;;;;;;5034062;28;20420;-77
2023/06/13 00:31:08;;;;;;;1.23;0.40;;;;;;;;;;5034129;28;20648;-77
2023/06/13 00:33:34;;;;;;;2.50;0.63;;;;;;;;;;5034076;28;20186;-80
2023/06/13 00:36:00;;;;;;;1.57;0.53;;;;;;;;;;5033332;28;20511;-82
2023/06/13 00:38:28;;;;;;;1.23;0.40;;;;;;;;;;5033998;28;20491;-76
2023/06/13 00:40:54;;;;;;;2.50;0.53;;;;;;;;;;5033861;28;20410;-76
2023/06/13 00:43:20;;;;;;;1.40;0.83;;;;;;;;;;5033693;28;20488;-77
2023/06/13 00:45:46;;;;;;;2.60;0.63;;;;;;;;;;5033786;28;20416;-77
2023/06/13 00:48:12;;;;;;;2.50;0.53;;;;;;;;;;5033743;28;20418;-77
2023/06/13 00:50:44;;;;;;;1.43;0.80;;;;;;;;;;5033404;28;20423;-77
2023/06/13 00:53:16;;;;;;;1.80;1.10;;;;;;;;;;5033709;28;20464;-76
2023/06/13 00:55:42;;;;;;;1.80;0.73;;;;;;;;;;5033598;28;20555;-77
2023/06/13 00:58:10;;;;;;;1.57;0.80;;;;;;;;;;5033550;28;20463;-77
2023/06/13 01:00:36;;;;;;;1.60;0.90;;;;;;;;;;5033535;28;20417;-77
2023/06/13 01:03:06;;;;;;;1.23;1.03;;;;;;;;;;5033431;28;20530;-76
2023/06/13 01:05:32;;;;;;;1.57;0.83;;;;;;;;;;5031521;28;20789;-76
2023/06/13 01:07:59;;;;;;;2.17;0.37;;;;;;;;;;5032907;28;20419;-76
2023/06/13 01:10:29;;;;;;;2.17;0.87;;;;;;;;;;5033190;28;20513;-76
2023/06/13 01:13:00;;;;;;;1.33;0.60;;;;;;;;;;5033455;28;20523;-77
2023/06/13 01:15:29;;;;;;;2.60;0.70;;;;;;;;;;5033213;28;20445;-76
2023/06/13 01:17:57;;;;;;;3.80;0.70;;;;;;;;;;5033290;28;20414;-76
2023/06/13 01:20:26;;;;;;;1.50;0.63;;;;;;;;;;5032895;28;20415;-76
2023/06/13 01:23:14;;;;;;;1.60;0.77;;;;;;;;;;5033166;28;20469;-76
2023/06/13 01:25:57;;;;;;;1.63;0.60;;;;;;;;;;5033149;28;20771;-76
2023/06/13 01:28:24;;;;;;;1.77;0.60;;;;;;;;;;5033066;28;20413;-76
2023/06/13 01:30:51;;;;;;;2.20;0.50;;;;;;;;;;5033091;28;20434;-76
2023/06/13 01:33:17;;;;;;;1.03;0.47;;;;;;;;;;5033129;28;20426;-76
2023/06/13 01:35:44;;;;;;;1.30;0.70;;;;;;;;;;5032709;28;20410;-76
2023/06/13 01:38:10;;;;;;;2.17;0.50;;;;;;;;;;5033033;28;20831;-76
2023/06/13 01:40:36;;;;;;;1.13;0.43;;;;;;;;;;5032926;28;20405;-81
2023/06/13 01:43:02;;;;;;;2.40;0.80;;;;;;;;;;5032833;28;20489;-76
2023/06/13 01:45:28;;;;;;;2.10;1.10;;;;;;;;;;5031663;28;20968;-77
2023/06/13 01:47:54;;;;;;;1.63;0.57;;;;;;;;;;5032915;28;20530;-77
2023/06/13 01:50:40;;;;;;;1.67;0.77;;;;;;;;;;5032512;28;20986;-77
2023/06/13 01:53:21;;;;;;;1.83;1.00;;;;;;;;;;5031564;28;20443;-82
2023/06/13 01:55:50;;;;;;;1.60;1.00;;;;;;;;;;5032763;28;20406;-76
2023/06/13 01:58:20;;;;;;;2.23;1.10;;;;;;;;;;5031548;28;20912;-76
2023/06/13 02:00:46;;;;;;;2.33;0.87;;;;;;;;;;5032716;28;20818;-77
2023/06/13 02:03:13;;;;;;;0.90;0.67;;;;;;;;;;5032723;28;20453;-77
2023/06/13 02:05:39;;;;;;;1.10;0.63;;;;;;;;;;5032402;28;20507;-77
2023/06/13 02:08:06;;;;;;;1.23;1.00;;;;;;;;;;5032724;28;20805;-77
2023/06/13 02:10:32;;;;;;;2.60;1.20;;;;;;;;;;5032619;28;20538;-76
2023/06/13 02:12:58;;;;;;;3.80;1.23;;;;;;;;;;5032770;28;20834;-76
2023/06/13 02:15:24;;;;;;;1.20;0.83;;;;;;;;;;5032655;28;20490;-77
2023/06/13 02:17:50;;;;;;;1.53;0.80;;;;;;;;;;5033871;28;20460;-76
2023/06/13 02:20:16;;;;;;;1.73;1.00;;;;;;;;;;5036257;28;20443;-77
2023/06/13 02:22:42;;;;;;;1.90;0.80;;;;;;;;;;5036411;28;20464;-76
2023/06/13 02:25:08;;;;;;;1.17;0.80;;;;;;;;;;5036416;28;20903;-77
2023/06/13 02:27:34;;;;;;;1.87;0.93;;;;;;;;;;5036677;28;20917;-77
2023/06/13 02:30:00;;;;;;;2.70;1.00;;;;;;;;;;5036387;28;20405;-76
2023/06/13 02:32:29;;;;;;;1.50;0.63;;;;;;;;;;5036264;28;20917;-76
2023/06/13 02:34:55;;;;;;;2.10;1.07;;;;;;;;;;5035900;28;20464;-77
2023/06/13 02:37:20;;;;;;;1.40;0.83;;;;;;;;;;5036288;28;20448;-77
2023/06/13 02:39:46;;;;;;;2.80;0.97;;;;;;;;;;5036180;28;20590;-83
2023/06/13 02:42:12;;;;;;;1.27;1.13;;;;;;;;;;5036227;28;20184;-79
2023/06/13 02:44:40;;;;;;;1.27;0.70;;;;;;;;;;5036063;28;20786;-77
2023/06/13 02:47:06;;;;;;;1.20;0.57;;;;;;;;;;5036060;28;20746;-76
2023/06/13 02:49:32;;;;;;;2.30;0.70;;;;;;;;;;5035859;28;20423;-83
2023/06/13 02:51:58;;;;;;;2.10;0.80;;;;;;;;;;5035873;28;20897;-76
2023/06/13 02:54:24;;;;;;;1.97;1.30;;;;;;;;;;5036011;28;20405;-77
2023/06/13 02:56:50;;;;;;;2.40;0.77;;;;;;;;;;5035954;28;20944;-77
2023/06/13 02:59:16;;;;;;;2.10;1.40;;;;;;;;;;5035807;28;20403;-77
2023/06/13 03:01:42;;;;;;;1.43;0.90;;;;;;;;;;5035770;28;20463;-78
2023/06/13 03:04:08;;;;;;;3.10;1.17;;;;;;;;;;5034368;28;20841;-82
2023/06/13 03:06:36;;;;;;;1.40;1.20;;;;;;;;;;5035249;28;20181;-78
2023/06/13 03:09:03;;;;;;;1.93;1.20;;;;;;;;;;5035501;28;20685;-76
2023/06/13 03:11:29;;;;;;;5.17;1.20;;;;;;;;;;5035529;28;20409;-77
2023/06/13 03:13:55;;;;;;;2.07;1.00;;;;;;;;;;5035399;28;20424;-81
2023/06/13 03:16:21;;;;;;;1.20;1.07;;;;;;;;;;5035449;28;20173;-77
2023/06/13 03:18:48;;;;;;;2.73;1.33;;;;;;;;;;5035531;28;20180;-77
2023/06/13 03:21:20;;;;;;;2.03;1.20;;;;;;;;;;5035087;28;20417;-76
2023/06/13 03:23:46;;;;;;;2.27;1.27;;;;;;;;;;5035345;28;20476;-81
2023/06/13 03:26:12;;;;;;;2.90;1.20;;;;;;;;;;5035306;28;20474;-83
2023/06/13 03:28:38;;;;;;;2.30;1.73;;;;;;;;;;5034846;28;20452;-78
2023/06/13 03:31:07;;;;;;;2.93;1.00;;;;;;;;;;5034622;28;20451;-76
2023/06/13 03:33:33;;;;;;;2.10;1.40;;;;;;;;;;5035184;28;20416;-76
2023/06/13 03:35:58;;;;;;;2.23;1.30;;;;;;;;;;5034818;28;20420;-77
2023/06/13 03:38:27;;;;;;;1.57;1.10;;;;;;;;;;5033883;28;20182;-79
2023/06/13 03:40:53;;;;;;;1.80;0.97;;;;;;;;;;5035060;28;20257;-78
2023/06/13 03:43:19;;;;;;;3.60;1.77;;;;;;;;;;5034770;28;20568;-78
2023/06/13 03:45:45;;;;;;;1.90;1.10;;;;;;;;;;5034977;28;20172;-78
2023/06/13 03:48:11;;;;;;;2.17;2.03;;;;;;;;;;5034963;28;20417;-76
2023/06/13 03:50:37;;;;;;;1.30;0.77;;;;;;;;;;5034568;28;20860;-81
2023/06/13 03:53:03;;;;;;;3.13;1.20;;;;;;;;;;5034809;28;20416;-76
2023/06/13 03:55:29;;;;;;;1.23;0.67;;;;;;;;;;5034775;28;20438;-78
2023/06/13 03:57:55;;;;;;;2.13;0.97;;;;;;;;;;5034727;28;20421;-76
2023/06/13 04:00:21;;;;;;;2.47;1.53;;;;;;;;;;5034714;28;20423;-76
2023/06/13 04:02:47;;;;;;;2.53;1.23;;;;;;;;;;5034588;28;21023;-76
2023/06/13 04:05:13;;;;;;;2.17;0.97;;;;;;;;;;5034241;28;20420;-76
2023/06/13 04:07:40;;;;;;;1.97;0.70;;;;;;;;;;5034636;28;20907;-81
2023/06/13 04:10:06;;;;;;;3.13;1.23;;;;;;;;;;5034323;28;20464;-76
2023/06/13 04:12:32;;;;;;;4.30;1.30;;;;;;;;;;5034478;28;20413;-77
2023/06/13 04:14:58;;;;;;;2.50;1.23;;;;;;;;;;5034442;28;20401;-78
2023/06/13 04:17:24;;;;;;;3.90;1.20;;;;;;;;;;5034349;28;20622;-76
2023/06/13 04:19:50;;;;;;;2.80;1.40;;;;;;;;;;5034078;28;20417;-77
2023/06/13 04:22:19;;;;;;;1.73;1.40;;;;;;;;;;5034260;28;20409;-77
2023/06/13 04:24:46;;;;;;;2.73;1.47;;;;;;;;;;5034042;28;20554;-78
2023/06/13 04:27:13;;;;;;;3.17;2.20;;;;;;;;;;5034096;28;20420;-76
2023/06/13 04:29:41;;;;;;;3.13;1.50;;;;;;;;;;5033963;28;20417;-81
2023/06/13 04:32:07;;;;;;;3.57;1.80;;;;;;;;;;5034100;28;20405;-77
2023/06/13 04:34:36;;;;;;;3.73;1.83;;;;;;;;;;5033705;28;20499;-79
2023/06/13 04:37:02;;;;;;;4.67;1.57;;;;;;;;;;5034007;28;20909;-77
2023/06/13 04:39:28;;;;;;;3.63;1.50;;;;;;;;;;5034014;28;20913;-77
2023/06/13 04:41:55;;;;;;;4.90;2.00;;;;;;;;;;5033592;28;20414;-77
2023/06/13 04:44:25;;;;;;;1.90;1.13;;;;;;;;;;5032586;28;20555;-77
2023/06/13 04:46:51;;;;;;;4.03;1.90;;;;;;;;;;5033828;28;20464;-77
2023/06/13 04:49:17;;;;;;;3.63;0.90;;;;;;;;;;5033411;28;20450;-77
2023/06/13 04:51:42;;;;;;;3.97;1.70;;;;;;;;;;5033711;28;20472;-76
2023/06/13 04:54:15;;;;;;;2.10;1.00;;;;;;;;;;5033705;28;20479;-76
2023/06/13 04:56:41;;;;;;;3.30;1.77;;;;;;;;;;5032395;28;20747;-77
2023/06/13 04:59:07;;;;;;;2.53;1.47;;;;;;;;;;5033549;28;20428;-78
2023/06/13 05:01:33;;;;;;;2.13;1.13;;;;;;;;;;5033485;28;20410;-77
2023/06/13 05:03:59;;;;;;;2.40;1.57;;;;;;;;;;5033373;28;20477;-78
2023/06/13 05:06:26;;;;;;;3.00;1.60;;;;;;;;;;5033126;28;20231;-76
2023/06/13 05:08:52;;;;;;;3.10;1.70;;;;;;;;;;5033323;28;20410;-75
2023/06/13 05:11:18;;;;;;;5.00;2.10;;;;;;;;;;5033456;28;20468;-76
2023/06/13 05:13:44;;;;;;;2.80;1.87;;;;;;;;;;5033450;28;20901;-76
2023/06/13 05:16:10;;;;;;;3.47;1.50;;;;;;;;;;5033250;28;20408;-76
2023/06/13 05:18:40;;;;;;;3.77;1.73;;;;;;;;;;5033240;28;20420;-76
2023/06/13 05:21:07;;;;;;;4.07;2.17;;;;;;;;;;5032895;28;20403;-77
2023/06/13 05:23:33;;;;;;;4.27;1.70;;;;;;;;;;5032993;28;20962;-77
2023/06/13 05:25:59;;;;;;;3.10;1.20;;;;;;;;;;5033295;28;20406;-77
2023/06/13 05:28:25;;;;;;;2.30;1.57;;;;;;;;;;5033039;28;20178;-78
2023/06/13 05:30:51;;;;;;;2.10;0.90;;;;;;;;;;5032934;28;20176;-79
2023/06/13 05:33:17;;;;;;;2.93;0.93;;;;;;;;;;5033075;28;20206;-79
2023/06/13 05:35:46;;;;;;;2.63;1.30;;;;;;;;;;5034886;28;20409;-86
2023/06/13 05:38:12;;;;;;;2.37;0.90;;;;;;;;;;5033588;28;20424;-88
2023/06/13 05:40:38;;;;;;;2.10;1.10;;;;;;;;;;5032924;28;20503;-88
2023/06/13 05:43:04;;;;;;;4.93;1.40;;;;;;;;;;5034174;28;20794;-91
2023/06/13 05:45:30;;;;;;;1.10;0.67;;;;;;;;;;5033525;28;21006;-90
2023/06/13 05:47:56;;;;;;;2.80;0.90;;;;;;;;;;5036495;28;20413;-88
2023/06/13 05:50:22;;;;;;;1.70;1.60;;;;;;;;;;5033387;28;20797;-87
2023/06/13 05:52:48;;;;;;;1.27;0.90;;;;;;;;;;5030292;28;20196;-86
2023/06/13 05:55:14;;;;;;;2.00;0.60;;;;;;;;;;5032638;28;20178;-86
2023/06/13 05:57:41;;;;;;;4.23;1.80;;;;;;;;;;5038595;28;20542;-88
2023/06/13 06:00:14;;;;;;;1.87;0.80;;;;;;;;;;5040040;28;20407;-88
2023/06/13 06:02:43;;;;;;;4.50;1.43;;;;;;;;;;5037266;28;20423;-86
2023/06/13 06:05:11;;;;;;;4.33;1.30;;;;;;;;;;5038922;28;20420;-89
2023/06/13 06:07:37;;;;;;;3.03;1.10;;;;;;;;;;5036419;28;20463;-83
2023/06/13 06:10:03;;;;;;;4.43;1.00;;;;;;;;;;5037210;28;20970;-83
2023/06/13 06:12:29;;;;;;;2.30;1.37;;;;;;;;;;5037628;28;20430;-84
2023/06/13 06:14:55;;;;;;;3.30;1.50;;;;;;;;;;5037422;28;20775;-87
2023/06/13 06:17:21;;;;;;;2.27;0.83;;;;;;;;;;5026782;28;20415;-83
2023/06/13 06:19:48;;;;;;;4.20;0.87;;;;;;;;;;5030986;28;20201;-84
2023/06/13 06:22:14;;;;;;;7.30;1.43;;;;;;;;;;5036788;28;20303;-84
2023/06/13 06:24:40;;;;;;;2.50;1.13;;;;;;;;;;5038783;28;20491;-87
2023/06/13 06:27:06;;;;;;;2.67;1.07;;;;;;;;;;5037647;28;20408;-84
2023/06/13 06:29:32;;;;;;;1.30;0.97;;;;;;;;;;5037540;28;20697;-85
2023/06/13 06:31:58;;;;;;;1.03;0.47;;;;;;;;;;5038727;28;20408;-87
2023/06/13 06:34:23;;;;;;;2.20;0.73;;;;;;;;;;5037506;28;20269;-85
2023/06/13 06:36:49;;;;;;;1.63;0.73;;;;;;;;;;5037842;28;20405;-86
2023/06/13 06:39:16;;;;;;;2.87;1.10;;;;;;;;;;5038142;28;20531;-83
2023/06/13 06:41:42;;;;;;;2.70;1.40;;;;;;;;;;5037794;28;20481;-83
2023/06/13 06:44:08;;;;;;;1.50;1.00;;;;;;;;;;5037451;28;20508;-85
2023/06/13 06:46:34;;;;;;;2.30;0.83;;;;;;;;;;5036802;28;20424;-85
2023/06/13 06:49:01;;;;;;;2.20;0.90;;;;;;;;;;5035054;28;20417;-87
2023/06/13 06:51:27;;;;;;;2.30;1.10;;;;;;;;;;5035943;28;20441;-77
2023/06/13 06:53:54;;;;;;;3.77;1.17;;;;;;;;;;5035944;28;20815;-77
2023/06/13 06:56:20;;;;;;;3.33;1.67;;;;;;;;;;5035311;28;20897;-76
2023/06/13 06:58:46;;;;;;;3.27;1.47;;;;;;;;;;5028276;28;20429;-76
2023/06/13 07:01:14;;;;;;;5.87;0.83;;;;;;;;;;5032409;28;20190;-80
2023/06/13 07:03:40;;;;;;;2.70;1.10;;;;;;;;;;5034257;28;20203;-82
2023/06/13 07:06:06;;;;;;;2.63;0.40;;;;;;;;;;5033604;28;20779;-76
2023/06/13 07:08:32;;;;;;;2.37;0.90;;;;;;;;;;5034716;28;20415;-76
2023/06/13 07:10:58;;;;;;;1.90;0.67;;;;;;;;;;5034540;28;20432;-76
2023/06/13 07:13:26;;;;;;;3.97;0.60;;;;;;;;;;5033918;28;20429;-76
2023/06/13 07:15:51;;;;;;;1.80;1.30;;;;;;;;;;5033851;28;20419;-77
2023/06/13 07:18:17;;;;;;;4.13;1.13;;;;;;;;;;5034350;28;20496;-77
2023/06/13 07:20:45;;;;;;;2.67;1.00;;;;;;;;;;5034078;28;20240;-77
2023/06/13 07:23:12;;;;;;;3.30;1.00;;;;;;;;;;5034371;28;20206;-77
2023/06/13 07:25:40;;;;;;;2.17;0.90;;;;;;;;;;5034432;28;20467;-76
2023/06/13 07:28:06;;;;;;;3.77;0.90;;;;;;;;;;5034156;28;20432;-77
2023/06/13 07:30:32;;;;;;;1.33;0.53;;;;;;;;;;5034647;28;20905;-76
2023/06/13 07:32:58;;;;;;;1.50;1.10;;;;;;;;;;5035091;28;20532;-77
2023/06/13 07:35:24;;;;;;;3.47;0.73;;;;;;;;;;5034867;28;20447;-76
2023/06/13 07:37:52;;;;;;;2.03;0.83;;;;;;;;;;5035112;28;20583;-79
2023/06/13 07:40:19;;;;;;;3.60;1.10;;;;;;;;;;5034974;28;20174;-75
2023/06/13 07:42:45;;;;;;;1.80;0.70;;;;;;;;;;5034996;28;20412;-75
2023/06/13 07:45:11;;;;;;;2.90;1.07;;;;;;;;;;5034968;28;20778;-75
2023/06/13 07:47:37;;;;;;;3.00;0.93;;;;;;;;;;5034891;28;20178;-76
2023/06/13 07:50:03;;;;;;;2.13;1.20;;;;;;;;;;5034476;28;20645;-76
2023/06/13 07:52:29;;;;;;;1.10;0.60;;;;;;;;;;5033520;28;20190;-77
2023/06/13 07:54:56;;;;;;;2.87;1.30;;;;;;;;;;5034900;28;20492;-77
2023/06/13 07:57:22;;;;;;;1.90;1.00;;;;;;;;;;5034701;28;20432;-76
2023/06/13 07:59:48;;;;;;;3.60;1.43;;;;;;;;;;5034740;28;20417;-76
2023/06/13 08:02:14;;;;;;;3.43;1.13;;;;;;;;;;5034694;28;20413;-76
2023/06/13 08:04:40;;;;;;;3.90;1.20;;;;;;;;;;5034191;28;20553;-76
2023/06/13 08:07:06;;;;;;;4.03;1.07;;;;;;;;;;5034596;28;20170;-76
2023/06/13 08:09:32;;;;;;;1.53;0.93;;;;;;;;;;5034277;28;20463;-77
2023/06/13 08:12:01;;;;;;;2.03;1.10;;;;;;;;;;5034484;28;20262;-76
2023/06/13 08:14:27;;;;;;;1.70;1.13;;;;;;;;;;5034535;28;20170;-75
2023/06/13 08:16:54;;;;;;;1.80;1.40;;;;;;;;;;5032605;28;20475;-76
2023/06/13 08:19:20;;;;;;;2.40;1.00;;;;;;;;;;5034005;28;20175;-79
2023/06/13 08:21:46;;;;;;;2.63;0.80;;;;;;;;;;5034264;28;20397;-82
2023/06/13 08:24:14;;;;;;;1.80;1.00;;;;;;;;;;5034111;28;20255;-78
2023/06/13 08:26:44;;;;;;;1.87;1.27;;;;;;;;;;5032919;28;20428;-75
2023/06/13 08:29:13;;;;;;;3.07;1.30;;;;;;;;;;5034190;28;20926;-77
2023/06/13 08:31:40;;;;;;;1.80;1.30;;;;;;;;;;5034086;28;20970;-76
2023/06/13 08:34:06;;;;;;;2.23;1.20;;;;;;;;;;5033715;28;20840;-83
2023/06/13 08:36:35;;;;;;;5.50;1.20;;;;;;;;;;5034091;28;20496;-83
2023/06/13 08:39:03;;;;;;;1.43;0.90;;;;;;;;;;5034002;28;20168;-83
2023/06/13 08:41:29;;;;;;;3.10;1.10;;;;;;;;;;5033962;28;20413;-83
2023/06/13 08:43:58;;;;;;;2.00;1.10;;;;;;;;;;5033845;28;20567;-85
2023/06/13 08:46:24;;;;;;;2.30;1.03;;;;;;;;;;5033856;28;20406;-80
2023/06/13 08:48:50;;;;;;;3.57;1.50;;;;;;;;;;5033377;28;21007;-79
2023/06/13 08:51:18;;;;;;;1.77;1.40;;;;;;;;;;5033664;28;20405;-76
2023/06/13 08:53:53;;;;;;;2.93;1.43;;;;;;;;;;5033630;28;20170;-82
2023/06/13 08:56:21;;;;;;;1.30;0.90;;;;;;;;;;5033683;28;20776;-77
2023/06/13 08:58:49;;;;;;;2.70;1.37;;;;;;;;;;5033600;28;20412;-85
2023/06/13 09:01:17;;;;;;;2.27;1.37;;;;;;;;;;5033570;28;20928;-78
2023/06/13 09:03:43;;;;;;;1.57;1.00;;;;;;;;;;5033087;28;20467;-77
2023/06/13 09:06:11;;;;;;;1.77;1.10;;;;;;;;;;5033481;28;20417;-77
2023/06/13 09:08:37;;;;;;;1.10;0.57;;;;;;;;;;5033027;28;20971;-79
2023/06/13 09:11:03;;;;;;;1.10;0.93;;;;;;;;;;5033466;28;20413;-78
2023/06/13 09:13:30;;;;;;;1.60;1.10;;;;;;;;;;5033306;28;20886;-78
2023/06/13 09:15:56;;;;;;;1.67;1.00;;;;;;;;;;5033405;28;20661;-76
2023/06/13 09:18:22;;;;;;;2.40;1.20;;;;;;;;;;5033315;28;20441;-82
2023/06/13 09:20:48;;;;;;;1.83;1.17;;;;;;;;;;5032898;28;20409;-77
2023/06/13 09:23:17;;;;;;;3.13;1.60;;;;;;;;;;5033159;28;20472;-77
2023/06/13 09:25:46;;;;;;;2.10;0.70;;;;;;;;;;5033198;28;20174;-77
2023/06/13 09:28:27;;;;;;;1.20;0.77;;;;;;;;;;5032333;28;20405;-77
2023/06/13 09:30:52;;;;;;;1.00;0.70;;;;;;;;;;5033104;28;20417;-77
2023/06/13 09:33:20;;;;;;;4.20;2.00;;;;;;;;;;5032984;28;20476;-78
2023/06/13 09:35:47;;;;;;;5.03;2.00;;;;;;;;;;5031492;28;20623;-78
2023/06/13 09:38:13;;;;;;;9.27;2.83;;;;;;;;;;5033014;28;20424;-84
2023/06/13 09:40:39;;;;;;;2.87;1.30;;;;;;;;;;5033074;28;20405;-77
2023/06/13 09:43:05;;;;;;;3.07;1.20;;;;;;;;;;5033037;28;20167;-81
2023/06/13 09:45:31;;;;;;;1.90;1.27;;;;;;;;;;5032898;28;20416;-77
2023/06/13 09:47:57;;;;;;;3.60;1.10;;;;;;;;;;5032992;28;20174;-77
2023/06/13 09:50:23;;;;;;;3.20;1.60;;;;;;;;;;5032638;28;20409;-77
2023/06/13 09:52:50;;;;;;;3.13;1.10;;;;;;;;;;5032895;28;20405;-76
2023/06/13 09:55:20;;;;;;;1.50;0.93;;;;;;;;;;5032957;28;20413;-77
2023/06/13 09:57:45;;;;;;;2.50;1.43;;;;;;;;;;5032843;28;20402;-77
2023/06/13 10:00:13;;;;;;;2.00;1.40;;;;;;;;;;5032769;28;20753;-77
2023/06/13 10:02:39;;;;;;;2.37;1.10;;;;;;;;;;5032823;28;20171;-82
2023/06/13 10:05:06;;;;;;;1.93;1.53;;;;;;;;;;5032449;28;20491;-78
2023/06/13 10:07:32;;;;;;;2.03;1.03;;;;;;;;;;5032610;28;20167;-79
2023/06/13 10:09:58;;;;;;;3.53;1.10;;;;;;;;;;5032033;28;20453;-78
2023/06/13 10:12:25;;;;;;;3.37;1.10;;;;;;;;;;5032725;28;20205;-77
2023/06/13 10:14:53;;;;;;;2.70;1.20;;;;;;;;;;5032479;28;20465;-81
2023/06/13 10:17:19;;;;;;;2.47;1.43;;;;;;;;;;5032619;28;20943;-82
2023/06/13 10:19:46;;;;;;;1.73;1.23;;;;;;;;;;5032169;28;20424;-78
2023/06/13 10:22:12;;;;;;;1.23;1.13;;;;;;;;;;5032398;28;20491;-77
2023/06/13 10:24:38;;;;;;;1.50;1.40;;;;;;;;;;5032376;28;20436;-76
2023/06/13 10:27:05;;;;;;;1.77;1.13;;;;;;;;;;5032467;28;20413;-82
2023/06/13 10:29:43;;;;;;;2.33;1.43;;;;;;;;;;5032346;28;20405;-76
2023/06/13 10:32:28;;;;;;;1.80;1.40;;;;;;;;;;5032394;28;20397;-77
2023/06/13 10:34:57;;;;;;;5.20;1.37;;;;;;;;;;5031966;28;20464;-84
2023/06/13 10:37:30;;;;;;;2.97;1.40;;;;;;;;;;5030829;28;20413;-80
2023/06/13 10:40:15;;;;;;;2.00;1.80;;;;;;;;;;5035201;28;20428;-85
2023/06/13 10:42:44;;;;;;;3.83;1.80;;;;;;;;;;5036057;28;20412;-87
2023/06/13 10:45:22;;;;;;;2.53;1.40;;;;;;;;;;5036110;28;20750;-83
2023/06/13 10:47:48;;;;;;;2.03;1.90;;;;;;;;;;5034816;28;20916;-88
2023/06/13 10:50:15;;;;;;;2.93;1.47;;;;;;;;;;5035719;28;20431;-87
2023/06/13 10:52:50;;;;;;;2.03;1.63;;;;;;;;;;5035911;28;20170;-88
2023/06/13 10:55:22;;;;;;;3.30;1.37;;;;;;;;;;5035787;28;20827;-77
2023/06/13 10:57:48;;;;;;;1.93;1.60;;;;;;;;;;5023883;28;20424;-87
2023/06/13 11:00:34;;;;;;;2.83;1.43;;;;;;;;;;5034015;28;20971;-89
2023/06/13 11:03:11;;;;;;;2.33;1.80;;;;;;;;;;5035436;28;20174;-85
2023/06/13 11:05:46;;;;;;;1.60;1.30;;;;;;;;;;5035184;28;20411;-81
2023/06/13 11:08:15;;;;;;;1.70;1.60;;;;;;;;;;5035108;28;20432;-83
2023/06/13 11:10:43;;;;;;;2.57;1.83;;;;;;;;;;5035418;28;20453;-90
2023/06/13 11:13:23;;;;;;;2.10;1.90;;;;;;;;;;5035403;28;20937;-89
2023/06/13 11:15:56;;;;;;;2.10;1.90;;;;;;;;;;5035797;28;20417;-80
2023/06/13 11:18:22;;;;;;;2.80;2.03;;;;;;;;;;5035554;28;20925;-79
2023/06/13 11:20:58;;;;;;;2.33;2.07;;;;;;;;;;5035593;28;20406;-90
2023/06/13 11:23:25;;;;;;;4.67;2.10;;;;;;;;;;5029018;28;20205;-84
2023/06/13 11:25:51;;;;;;;2.20;1.93;;;;;;;;;;5031844;28;20785;-78
2023/06/13 11:28:18;;;;;;;3.43;2.07;;;;;;;;;;5034104;28;20401;-83
2023/06/13 11:30:47;;;;;;;4.23;2.40;;;;;;;;;;5032940;28;20948;-82
2023/06/13 11:33:13;;;;;;;2.00;1.53;;;;;;;;;;5034239;28;20526;-88
2023/06/13 11:35:45;;;;;;;2.67;2.40;;;;;;;;;;5036044;28;20456;-94
2023/06/13 11:38:18;;;;;;;2.93;2.00;;;;;;;;;;5033957;28;20417;-87
2023/06/13 11:40:44;;;;;;;2.23;2.03;;;;;;;;;;5034609;28;20413;-78
2023/06/13 11:43:10;;;;;;;2.80;1.90;;;;;;;;;;5035170;28;20423;-90
2023/06/13 11:45:36;;;;;;;2.40;1.70;;;;;;;;;;5035432;28;20417;-94
2023/06/13 11:48:03;;;;;;;2.10;1.90;;;;;;;;;;5035883;28;20517;-77
2023/06/13 11:50:29;;;;;;;2.17;1.80;;;;;;;;;;5025114;28;20421;-79
2023/06/13 11:53:08;;;;;;;2.27;2.00;;;;;;;;;;5042542;28;20445;-83
2023/06/13 11:55:34;;;;;;;3.27;2.30;;;;;;;;;;5030059;28;20444;-86
2023/06/13 11:58:01;;;;;;;2.67;2.47;;;;;;;;;;5046788;28;20500;-79
2023/06/13 12:00:27;;;;;;;2.27;2.07;;;;;;;;;;5032585;28;20816;-80
2023/06/13 12:02:57;;;;;;;2.80;2.50;;;;;;;;;;5033706;28;20421;-81
2023/06/13 12:05:24;;;;;;;3.33;1.90;;;;;;;;;;5025734;28;20425;-80
2023/06/13 12:07:50;;;;;;;2.13;1.83;;;;;;;;;;5021924;28;20465;-78
2023/06/13 12:10:17;;;;;;;2.13;1.90;;;;;;;;;;5013633;28;20511;-78
2023/06/13 12:12:43;;;;;;;2.90;1.60;;;;;;;;;;5013955;28;20417;-82
2023/06/13 12:15:13;;;;;;;3.80;1.63;;;;;;;;;;5013276;28;20455;-78
2023/06/13 12:17:59;;;;;;;4.70;2.50;;;;;;;;;;5013887;28;20220;-79
2023/06/13 12:20:28;;;;;;;3.87;1.97;;;;;;;;;;5019799;28;20414;-79
2023/06/13 12:22:55;;;;;;;2.23;2.10;;;;;;;;;;5030029;28;20780;-79
2023/06/13 12:25:22;;;;;;;3.03;2.20;;;;;;;;;;5035237;28;20536;-79
2023/06/13 12:27:50;;;;;;;2.40;2.13;;;;;;;;;;5033090;28;20447;-78
2023/06/13 12:30:17;;;;;;;3.30;2.03;;;;;;;;;;5032186;28;20440;-79
2023/06/13 12:32:43;;;;;;;3.27;2.57;;;;;;;;;;5032150;28;20508;-87
2023/06/13 12:35:10;;;;;;;2.87;2.10;;;;;;;;;;5032997;28;21059;-82
2023/06/13 12:37:38;;;;;;;2.80;2.57;;;;;;;;;;5033190;28;20468;-80
2023/06/13 12:40:13;;;;;;;3.17;1.70;;;;;;;;;;5033437;28;20421;-81
2023/06/13 12:42:43;;;;;;;2.83;2.20;;;;;;;;;;5032776;28;20539;-78
2023/06/13 12:45:10;;;;;;;2.00;1.80;;;;;;;;;;5032585;28;20420;-77
2023/06/13 12:47:36;;;;;;;2.53;1.83;;;;;;;;;;5033114;28;20405;-77
2023/06/13 12:50:09;;;;;;;3.97;2.70;;;;;;;;;;5031676;28;20436;-79
2023/06/13 12:52:36;;;;;;;1.73;1.63;;;;;;;;;;5031954;28;20467;-80
2023/06/13 12:55:02;;;;;;;1.93;1.70;;;;;;;;;;5031348;28;20523;-87
2023/06/13 12:57:28;;;;;;;2.53;2.20;;;;;;;;;;5030419;28;20427;-82
2023/06/13 12:59:54;;;;;;;2.40;1.90;;;;;;;;;;5033084;28;20848;-83
2023/06/13 13:02:23;;;;;;;2.30;1.70;;;;;;;;;;5032644;28;20174;-82
2023/06/13 13:04:50;;;;;;;2.40;1.60;;;;;;;;;;5032768;28;20459;-86
2023/06/13 13:07:17;;;;;;;1.67;1.57;;;;;;;;;;5032781;28;20424;-78
2023/06/13 13:09:43;;;;;;;1.50;1.30;;;;;;;;;;5032588;28;20496;-82
2023/06/13 13:12:09;;;;;;;3.17;2.10;;;;;;;;;;5032907;28;20409;-78
2023/06/13 13:14:36;;;;;;;3.20;1.90;;;;;;;;;;5026723;28;20480;-85
2023/06/13 13:17:02;;;;;;;3.50;2.10;;;;;;;;;;5031342;28;20409;-78
2023/06/13 13:19:28;;;;;;;3.50;2.00;;;;;;;;;;5024258;28;20417;-77
2023/06/13 13:21:55;;;;;;;2.90;2.07;;;;;;;;;;5030453;28;20423;-82
2023/06/13 13:24:21;;;;;;;3.47;1.90;;;;;;;;;;5022195;28;20413;-79
2023/06/13 13:26:53;;;;;;;1.80;1.50;;;;;;;;;;5019821;28;20418;-79
2023/06/13 13:29:20;;;;;;;2.47;2.10;;;;;;;;;;5022918;28;20174;-77
2023/06/13 13:31:46;;;;;;;2.43;1.67;;;;;;;;;;5018658;28;20398;-78
2023/06/13 13:34:12;;;;;;;1.73;1.60;;;;;;;;;;5024790;28;20472;-80
2023/06/13 13:36:39;;;;;;;2.10;1.60;;;;;;;;;;5017581;28;20406;-82
2023/06/13 13:39:05;;;;;;;2.13;1.70;;;;;;;;;;5020979;28;20422;-78
2023/06/13 13:41:32;;;;;;;2.67;2.13;;;;;;;;;;5026593;28;20449;-80
2023/06/13 13:43:59;;;;;;;2.00;1.80;;;;;;;;;;5022885;28;20817;-79
2023/06/13 13:46:28;;;;;;;2.03;1.80;;;;;;;;;;5015363;28;20906;-78
2023/06/13 13:48:54;;;;;;;1.83;1.67;;;;;;;;;;5022852;28;20409;-78
2023/06/13 13:51:23;;;;;;;7.57;1.90;;;;;;;;;;5022948;28;20484;-78
2023/06/13 13:53:49;;;;;;;3.63;1.90;;;;;;;;;;5026693;28;20484;-80
2023/06/13 13:56:15;;;;;;;3.93;2.17;;;;;;;;;;5021231;28;20492;-78
2023/06/13 13:58:41;;;;;;;3.50;1.47;;;;;;;;;;5023144;28;20397;-78
2023/06/13 14:01:07;;;;;;;2.73;1.53;;;;;;;;;;5021753;28;20429;-77
2023/06/13 14:03:33;;;;;;;4.07;1.90;;;;;;;;;;5021036;28;20522;-78
2023/06/13 14:05:59;;;;;;;5.83;1.90;;;;;;;;;;5021563;28;20174;-77
2023/06/13 14:08:24;;;;;;;2.80;1.80;;;;;;;;;;5015051;28;20182;-77
2023/06/13 14:10:50;;;;;;;5.07;1.80;;;;;;;;;;5011135;28;20237;-77
2023/06/13 14:13:16;;;;;;;1.20;1.10;;;;;;;;;;5011213;28;20289;-77
2023/06/13 14:15:42;;;;;;;2.10;1.63;;;;;;;;;;5016148;28;20444;-76
2023/06/13 14:18:09;;;;;;;2.73;1.67;;;;;;;;;;5016055;28;20179;-77
2023/06/13 14:20:35;;;;;;;2.77;1.67;;;;;;;;;;5016149;28;20265;-78
2023/06/13 14:23:01;;;;;;;2.73;1.37;;;;;;;;;;5015994;28;20820;-78
2023/06/13 14:25:27;;;;;;;2.87;1.60;;;;;;;;;;5016311;28;20229;-77
2023/06/13 14:27:53;;;;;;;4.23;1.60;;;;;;;;;;5016082;28;20485;-79
2023/06/13 14:30:19;;;;;;;1.90;1.50;;;;;;;;;;5014674;28;20425;-77
2023/06/13 14:32:45;;;;;;;1.47;0.70;;;;;;;;;;5015796;28;20624;-76
2023/06/13 14:35:11;;;;;;;5.53;2.03;;;;;;;;;;5032777;28;20503;-77
2023/06/13 14:37:37;;;;;;;3.80;1.20;;;;;;;;;;5034895;28;20893;-76
2023/06/13 14:40:04;;;;;;;3.10;1.50;;;;;;;;;;5034311;28;20630;-84
2023/06/13 14:42:30;;;;;;;4.70;1.70;;;;;;;;;;5035913;28;20547;-80
2023/06/13 14:44:56;;;;;;;3.90;1.40;;;;;;;;;;5035466;28;20516;-78